sensor_id;sensor_type;location;lat;lon;timestamp;temperature;humidity
24338;DHT22;12457;50.832;4.346;2024-03-23T00:54:26;8.10;99.90
24338;DHT22;12457;50.832;4.346;2024-03-23T00:56:51;8.20;99.90
24338;DHT22;12457;50.832;4.346;2024-03-23T00:59:18;8.20;99.90
24338;DHT22;12457;50.832;4.346;2024-03-23T01:01:44;8.10;99.90
24338;DHT22;12457;50.832;4.346;2024-03-23T01:04:09;8.10;99.90
24338;DHT22;12457;50.832;4.346;2024-03-23T01:06:35;8.00;99.90
24338;DHT22;12457;50.832;4.346;2024-03-23T01:09:01;8.10;99.90
24338;DHT22;12457;50.832;4.346;2024-03-23T01:11:27;7.90;99.90
24338;DHT22;12457;50.832;4.346;2024-03-23T01:13:54;7.90;99.90
24338;DHT22;12457;50.832;4.346;2024-03-23T01:16:21;7.90;99.90
24338;DHT22;12457;50.832;4.346;2024-03-23T01:18:47;7.90;99.90
24338;DHT22;12457;50.832;4.346;2024-03-23T01:21:13;7.90;99.90
24338;DHT22;12457;50.832;4.346;2024-03-23T01:23:51;7.90;99.90
24338;DHT22;12457;50.832;4.346;2024-03-23T01:26:17;7.70;99.90
24338;DHT22;12457;50.832;4.346;2024-03-23T01:28:43;7.70;99.90
24338;DHT22;12457;50.832;4.346;2024-03-23T01:31:08;7.70;99.90
24338;DHT22;12457;50.832;4.346;2024-03-23T01:33:34;7.80;99.90
24338;DHT22;12457;50.832;4.346;2024-03-23T01:36:00;7.80;99.90
24338;DHT22;12457;50.832;4.346;2024-03-23T01:38:29;7.80;99.90
24338;DHT22;12457;50.832;4.346;2024-03-23T01:40:57;7.90;99.90
24338;DHT22;12457;50.832;4.346;2024-03-23T01:43:23;7.80;99.90
24338;DHT22;12457;50.832;4.346;2024-03-23T01:45:50;7.90;99.90
24338;DHT22;12457;50.832;4.346;2024-03-23T01:48:20;7.90;99.90
24338;DHT22;12457;50.832;4.346;2024-03-23T01:50:46;7.80;99.90
24338;DHT22;12457;50.832;4.346;2024-03-23T01:53:12;7.80;99.90
24338;DHT22;12457;50.832;4.346;2024-03-23T01:55:40;7.80;99.90
24338;DHT22;12457;50.832;4.346;2024-03-23T01:58:06;7.80;99.90
24338;DHT22;12457;50.832;4.346;2024-03-23T02:00:32;7.80;99.90
24338;DHT22;12457;50.832;4.346;2024-03-23T02:02:58;7.80;99.90
24338;DHT22;12457;50.832;4.346;2024-03-23T02:05:24;7.80;99.90
24338;DHT22;12457;50.832;4.346;2024-03-23T02:07:50;7.90;99.90
24338;DHT22;12457;50.832;4.346;2024-03-23T02:10:16;7.90;99.90
24338;DHT22;12457;50.832;4.346;2024-03-23T02:12:43;7.90;99.90
24338;DHT22;12457;50.832;4.346;2024-03-23T02:15:08;7.90;99.90
24338;DHT22;12457;50.832;4.346;2024-03-23T02:17:35;8.00;99.90
24338;DHT22;12457;50.832;4.346;2024-03-23T02:20:03;8.10;99.90
24338;DHT22;12457;50.832;4.346;2024-03-23T02:22:36;8.10;99.90
24338;DHT22;12457;50.832;4.346;2024-03-23T02:25:09;8.10;99.90
24338;DHT22;12457;50.832;4.346;2024-03-23T02:27:35;8.20;99.90
24338;DHT22;12457;50.832;4.346;2024-03-23T02:30:01;8.20;99.90
24338;DHT22;12457;50.832;4.346;2024-03-23T02:32:27;8.30;99.90
24338;DHT22;12457;50.832;4.346;2024-03-23T02:34:52;8.30;99.90
24338;DHT22;12457;50.832;4.346;2024-03-23T02:37:18;8.30;99.90
24338;DHT22;12457;50.832;4.346;2024-03-23T02:39:53;8.30;99.90
24338;DHT22;12457;50.832;4.346;2024-03-23T02:42:19;8.30;99.90
24338;DHT22;12457;50.832;4.346;2024-03-23T02:44:46;8.30;99.90
24338;DHT22;12457;50.832;4.346;2024-03-23T02:47:12;8.20;99.90
24338;DHT22;12457;50.832;4.346;2024-03-23T02:49:38;8.20;99.90
24338;DHT22;12457;50.832;4.346;2024-03-23T02:52:03;8.20;99.90
24338;DHT22;12457;50.832;4.346;2024-03-23T02:54:29;8.20;99.90
24338;DHT22;12457;50.832;4.346;2024-03-23T02:56:55;8.20;99.90
24338;DHT22;12457;50.832;4.346;2024-03-23T02:59:21;8.20;99.90
24338;DHT22;12457;50.832;4.346;2024-03-23T03:01:47;8.20;99.90
24338;DHT22;12457;50.832;4.346;2024-03-23T03:04:12;8.20;99.90
24338;DHT22;12457;50.832;4.346;2024-03-23T03:06:38;8.20;99.90
24338;DHT22;12457;50.832;4.346;2024-03-23T03:09:04;8.30;99.90
24338;DHT22;12457;50.832;4.346;2024-03-23T03:11:30;8.30;99.90
24338;DHT22;12457;50.832;4.346;2024-03-23T03:13:55;8.30;99.90
24338;DHT22;12457;50.832;4.346;2024-03-23T03:16:21;8.30;99.90
24338;DHT22;12457;50.832;4.346;2024-03-23T03:18:47;8.30;99.90
24338;DHT22;12457;50.832;4.346;2024-03-23T03:21:13;8.20;99.90
24338;DHT22;12457;50.832;4.346;2024-03-23T03:23:38;8.20;99.90
24338;DHT22;12457;50.832;4.346;2024-03-23T03:26:07;8.20;99.90
24338;DHT22;12457;50.832;4.346;2024-03-23T03:28:34;8.10;99.90
24338;DHT22;12457;50.832;4.346;2024-03-23T03:31:00;8.10;99.90
24338;DHT22;12457;50.832;4.346;2024-03-23T03:33:29;8.10;99.90
24338;DHT22;12457;50.832;4.346;2024-03-23T03:35:55;8.10;99.90
24338;DHT22;12457;50.832;4.346;2024-03-23T03:38:21;8.10;99.90
24338;DHT22;12457;50.832;4.346;2024-03-23T03:40:47;8.00;99.90
24338;DHT22;12457;50.832;4.346;2024-03-23T03:43:13;8.00;99.90
24338;DHT22;12457;50.832;4.346;2024-03-23T03:45:38;8.00;99.90
24338;DHT22;12457;50.832;4.346;2024-03-23T03:48:04;7.90;99.90
24338;DHT22;12457;50.832;4.346;2024-03-23T03:50:30;7.90;99.90
24338;DHT22;12457;50.832;4.346;2024-03-23T03:52:56;7.70;99.90
24338;DHT22;12457;50.832;4.346;2024-03-23T03:55:22;7.70;99.90
24338;DHT22;12457;50.832;4.346;2024-03-23T03:57:47;7.70;99.90
24338;DHT22;12457;50.832;4.346;2024-03-23T04:00:13;7.70;99.90
24338;DHT22;12457;50.832;4.346;2024-03-23T04:02:39;7.70;99.90
24338;DHT22;12457;50.832;4.346;2024-03-23T04:05:05;7.80;99.90
24338;DHT22;12457;50.832;4.346;2024-03-23T04:07:31;7.80;99.90
24338;DHT22;12457;50.832;4.346;2024-03-23T04:10:09;7.80;99.90
24338;DHT22;12457;50.832;4.346;2024-03-23T04:12:35;7.90;99.90
24338;DHT22;12457;50.832;4.346;2024-03-23T04:15:01;7.90;99.90
24338;DHT22;12457;50.832;4.346;2024-03-23T04:17:29;7.90;99.90
24338;DHT22;12457;50.832;4.346;2024-03-23T04:19:58;7.80;99.90
24338;DHT22;12457;50.832;4.346;2024-03-23T04:22:24;7.90;99.90
24338;DHT22;12457;50.832;4.346;2024-03-23T04:24:55;7.90;99.90
24338;DHT22;12457;50.832;4.346;2024-03-23T04:27:21;7.90;99.90
24338;DHT22;12457;50.832;4.346;2024-03-23T04:29:48;7.90;99.90
24338;DHT22;12457;50.832;4.346;2024-03-23T04:32:14;7.80;99.90
24338;DHT22;12457;50.832;4.346;2024-03-23T04:34:40;7.70;99.90
24338;DHT22;12457;50.832;4.346;2024-03-23T04:37:06;7.80;99.90
24338;DHT22;12457;50.832;4.346;2024-03-23T04:39:31;7.80;99.90
24338;DHT22;12457;50.832;4.346;2024-03-23T04:42:25;7.80;99.90
24338;DHT22;12457;50.832;4.346;2024-03-23T04:44:51;7.80;99.90
24338;DHT22;12457;50.832;4.346;2024-03-23T04:47:16;7.80;99.90
24338;DHT22;12457;50.832;4.346;2024-03-23T04:49:42;7.80;99.90
24338;DHT22;12457;50.832;4.346;2024-03-23T04:52:08;7.70;99.90
24338;DHT22;12457;50.832;4.346;2024-03-23T04:54:33;7.60;99.90
24338;DHT22;12457;50.832;4.346;2024-03-23T04:57:18;7.50;99.90
24338;DHT22;12457;50.832;4.346;2024-03-23T04:59:44;7.50;99.90
24338;DHT22;12457;50.832;4.346;2024-03-23T05:02:09;7.40;99.90
24338;DHT22;12457;50.832;4.346;2024-03-23T05:04:35;7.30;99.90
24338;DHT22;12457;50.832;4.346;2024-03-23T05:07:02;7.30;99.90
24338;DHT22;12457;50.832;4.346;2024-03-23T05:09:29;7.30;99.90
24338;DHT22;12457;50.832;4.346;2024-03-23T05:11:56;7.30;99.90
24338;DHT22;12457;50.832;4.346;2024-03-23T05:14:22;7.30;99.90
24338;DHT22;12457;50.832;4.346;2024-03-23T05:16:48;7.30;99.90
24338;DHT22;12457;50.832;4.346;2024-03-23T05:19:14;7.30;99.90
24338;DHT22;12457;50.832;4.346;2024-03-23T05:21:39;7.40;99.90
24338;DHT22;12457;50.832;4.346;2024-03-23T05:24:05;7.30;99.90
24338;DHT22;12457;50.832;4.346;2024-03-23T05:26:31;7.30;99.90
24338;DHT22;12457;50.832;4.346;2024-03-23T05:28:56;7.30;99.90
24338;DHT22;12457;50.832;4.346;2024-03-23T05:31:23;7.30;99.90
24338;DHT22;12457;50.832;4.346;2024-03-23T05:33:49;7.30;99.90
24338;DHT22;12457;50.832;4.346;2024-03-23T05:36:15;7.30;99.90
24338;DHT22;12457;50.832;4.346;2024-03-23T05:38:41;7.30;99.90
24338;DHT22;12457;50.832;4.346;2024-03-23T05:41:07;7.20;99.90
24338;DHT22;12457;50.832;4.346;2024-03-23T05:43:32;7.20;99.90
24338;DHT22;12457;50.832;4.346;2024-03-23T05:45:59;7.30;99.90
24338;DHT22;12457;50.832;4.346;2024-03-23T05:48:26;7.20;99.90
24338;DHT22;12457;50.832;4.346;2024-03-23T05:50:52;7.20;99.90
24338;DHT22;12457;50.832;4.346;2024-03-23T05:53:18;7.30;99.90
24338;DHT22;12457;50.832;4.346;2024-03-23T05:56:03;7.30;99.90
24338;DHT22;12457;50.832;4.346;2024-03-23T05:58:29;7.20;99.90
24338;DHT22;12457;50.832;4.346;2024-03-23T06:01:02;7.20;99.90
24338;DHT22;12457;50.832;4.346;2024-03-23T06:03:28;7.30;99.90
24338;DHT22;12457;50.832;4.346;2024-03-23T06:05:55;7.30;99.90
24338;DHT22;12457;50.832;4.346;2024-03-23T06:08:21;7.40;99.90
24338;DHT22;12457;50.832;4.346;2024-03-23T06:10:52;7.40;99.90
24338;DHT22;12457;50.832;4.346;2024-03-23T06:13:18;7.50;99.90
24338;DHT22;12457;50.832;4.346;2024-03-23T06:15:45;7.50;99.90
24338;DHT22;12457;50.832;4.346;2024-03-23T06:18:12;7.60;99.90
24338;DHT22;12457;50.832;4.346;2024-03-23T06:20:38;7.60;99.90
24338;DHT22;12457;50.832;4.346;2024-03-23T06:23:04;7.60;99.90
24338;DHT22;12457;50.832;4.346;2024-03-23T06:25:30;7.60;99.90
24338;DHT22;12457;50.832;4.346;2024-03-23T06:27:57;7.60;99.90
24338;DHT22;12457;50.832;4.346;2024-03-23T06:30:24;7.70;99.90
24338;DHT22;12457;50.832;4.346;2024-03-23T06:32:49;7.70;99.90
24338;DHT22;12457;50.832;4.346;2024-03-23T06:35:15;7.70;99.90
24338;DHT22;12457;50.832;4.346;2024-03-23T06:37:41;7.70;99.90
24338;DHT22;12457;50.832;4.346;2024-03-23T06:40:08;7.70;99.90
24338;DHT22;12457;50.832;4.346;2024-03-23T06:42:40;7.70;99.90
24338;DHT22;12457;50.832;4.346;2024-03-23T06:45:06;7.70;99.90
24338;DHT22;12457;50.832;4.346;2024-03-23T06:47:32;7.80;99.90
24338;DHT22;12457;50.832;4.346;2024-03-23T06:49:59;7.80;99.90
24338;DHT22;12457;50.832;4.346;2024-03-23T06:52:27;7.90;99.90
24338;DHT22;12457;50.832;4.346;2024-03-23T06:54:53;7.90;99.90
24338;DHT22;12457;50.832;4.346;2024-03-23T06:57:19;7.90;99.90
24338;DHT22;12457;50.832;4.346;2024-03-23T06:59:44;8.00;99.90
24338;DHT22;12457;50.832;4.346;2024-03-23T07:02:10;8.00;99.90
24338;DHT22;12457;50.832;4.346;2024-03-23T07:04:36;8.00;99.90
24338;DHT22;12457;50.832;4.346;2024-03-23T07:07:02;8.00;99.90
24338;DHT22;12457;50.832;4.346;2024-03-23T07:09:28;7.90;99.90
24338;DHT22;12457;50.832;4.346;2024-03-23T07:11:58;7.50;99.90
24338;DHT22;12457;50.832;4.346;2024-03-23T07:14:24;7.30;99.90
24338;DHT22;12457;50.832;4.346;2024-03-23T07:16:50;7.00;99.90
24338;DHT22;12457;50.832;4.346;2024-03-23T07:19:17;7.00;99.90
24338;DHT22;12457;50.832;4.346;2024-03-23T07:21:43;6.80;99.90
24338;DHT22;12457;50.832;4.346;2024-03-23T07:24:09;6.90;99.90
24338;DHT22;12457;50.832;4.346;2024-03-23T07:27:04;6.90;99.90
24338;DHT22;12457;50.832;4.346;2024-03-23T07:29:29;6.90;99.90
24338;DHT22;12457;50.832;4.346;2024-03-23T07:31:55;7.00;99.90
24338;DHT22;12457;50.832;4.346;2024-03-23T07:34:21;7.10;99.90
24338;DHT22;12457;50.832;4.346;2024-03-23T07:36:46;7.20;99.90
24338;DHT22;12457;50.832;4.346;2024-03-23T07:39:12;7.30;99.90
24338;DHT22;12457;50.832;4.346;2024-03-23T07:41:38;7.40;99.90
24338;DHT22;12457;50.832;4.346;2024-03-23T07:44:04;7.50;99.90
24338;DHT22;12457;50.832;4.346;2024-03-23T07:46:29;7.60;99.90
24338;DHT22;12457;50.832;4.346;2024-03-23T07:48:55;7.60;99.90
24338;DHT22;12457;50.832;4.346;2024-03-23T07:51:22;7.60;99.90
24338;DHT22;12457;50.832;4.346;2024-03-23T07:53:48;7.80;99.90
24338;DHT22;12457;50.832;4.346;2024-03-23T07:56:14;7.90;99.90
24338;DHT22;12457;50.832;4.346;2024-03-23T07:58:41;8.00;99.90
24338;DHT22;12457;50.832;4.346;2024-03-23T08:01:09;8.10;99.90
24338;DHT22;12457;50.832;4.346;2024-03-23T08:03:39;8.20;99.90
24338;DHT22;12457;50.832;4.346;2024-03-23T08:06:08;8.30;99.90
24338;DHT22;12457;50.832;4.346;2024-03-23T08:08:34;8.50;99.90
24338;DHT22;12457;50.832;4.346;2024-03-23T08:11:00;8.60;99.90
24338;DHT22;12457;50.832;4.346;2024-03-23T08:13:26;8.60;99.90
24338;DHT22;12457;50.832;4.346;2024-03-23T08:15:59;8.70;99.90
24338;DHT22;12457;50.832;4.346;2024-03-23T08:18:26;8.70;99.90
24338;DHT22;12457;50.832;4.346;2024-03-23T08:21:03;8.60;99.90
24338;DHT22;12457;50.832;4.346;2024-03-23T08:23:31;8.70;99.90
24338;DHT22;12457;50.832;4.346;2024-03-23T08:26:03;8.90;99.90
24338;DHT22;12457;50.832;4.346;2024-03-23T08:28:30;9.00;99.90
24338;DHT22;12457;50.832;4.346;2024-03-23T08:30:56;9.10;99.90
24338;DHT22;12457;50.832;4.346;2024-03-23T08:33:23;9.20;99.90
24338;DHT22;12457;50.832;4.346;2024-03-23T08:35:57;9.10;99.90
24338;DHT22;12457;50.832;4.346;2024-03-23T08:38:24;9.10;99.90
24338;DHT22;12457;50.832;4.346;2024-03-23T08:41:02;8.90;99.90
24338;DHT22;12457;50.832;4.346;2024-03-23T08:43:36;9.10;99.90
24338;DHT22;12457;50.832;4.346;2024-03-23T08:46:13;9.20;99.90
24338;DHT22;12457;50.832;4.346;2024-03-23T08:48:41;9.20;99.90
24338;DHT22;12457;50.832;4.346;2024-03-23T08:51:09;9.30;99.90
24338;DHT22;12457;50.832;4.346;2024-03-23T08:53:35;9.30;99.90
24338;DHT22;12457;50.832;4.346;2024-03-23T08:56:02;9.30;99.90
24338;DHT22;12457;50.832;4.346;2024-03-23T08:59:02;9.10;99.90
24338;DHT22;12457;50.832;4.346;2024-03-23T09:01:28;9.10;99.90
24338;DHT22;12457;50.832;4.346;2024-03-23T09:03:54;9.10;99.90
24338;DHT22;12457;50.832;4.346;2024-03-23T09:06:21;9.20;99.90
24338;DHT22;12457;50.832;4.346;2024-03-23T09:08:47;9.40;99.90
24338;DHT22;12457;50.832;4.346;2024-03-23T09:11:13;9.60;99.90
24338;DHT22;12457;50.832;4.346;2024-03-23T09:14:07;9.70;99.90
24338;DHT22;12457;50.832;4.346;2024-03-23T09:16:33;9.70;99.90
24338;DHT22;12457;50.832;4.346;2024-03-23T09:18:58;9.80;99.90
24338;DHT22;12457;50.832;4.346;2024-03-23T09:21:24;9.70;99.90
24338;DHT22;12457;50.832;4.346;2024-03-23T09:23:50;9.60;99.90
24338;DHT22;12457;50.832;4.346;2024-03-23T09:26:16;9.60;99.90
24338;DHT22;12457;50.832;4.346;2024-03-23T09:28:42;9.70;99.90
24338;DHT22;12457;50.832;4.346;2024-03-23T09:31:08;9.70;99.90
24338;DHT22;12457;50.832;4.346;2024-03-23T09:33:36;9.90;99.90
24338;DHT22;12457;50.832;4.346;2024-03-23T09:36:04;9.70;99.90
24338;DHT22;12457;50.832;4.346;2024-03-23T09:38:30;9.70;99.90
24338;DHT22;12457;50.832;4.346;2024-03-23T09:40:56;9.80;99.90
24338;DHT22;12457;50.832;4.346;2024-03-23T09:43:22;9.80;99.90
24338;DHT22;12457;50.832;4.346;2024-03-23T09:45:49;9.90;99.90
24338;DHT22;12457;50.832;4.346;2024-03-23T09:48:15;10.10;99.90
24338;DHT22;12457;50.832;4.346;2024-03-23T09:50:44;10.30;99.90
24338;DHT22;12457;50.832;4.346;2024-03-23T09:53:13;10.30;99.90
24338;DHT22;12457;50.832;4.346;2024-03-23T09:55:41;10.40;99.90
24338;DHT22;12457;50.832;4.346;2024-03-23T09:58:25;10.50;99.90
24338;DHT22;12457;50.832;4.346;2024-03-23T10:00:52;10.50;99.90
24338;DHT22;12457;50.832;4.346;2024-03-23T10:03:18;10.30;99.90
24338;DHT22;12457;50.832;4.346;2024-03-23T10:05:46;10.20;99.90
24338;DHT22;12457;50.832;4.346;2024-03-23T10:08:17;10.40;99.90
24338;DHT22;12457;50.832;4.346;2024-03-23T10:10:44;10.40;99.90
24338;DHT22;12457;50.832;4.346;2024-03-23T10:13:24;10.30;99.90
24338;DHT22;12457;50.832;4.346;2024-03-23T10:15:58;10.30;99.90
24338;DHT22;12457;50.832;4.346;2024-03-23T10:18:29;10.30;99.90
24338;DHT22;12457;50.832;4.346;2024-03-23T10:21:07;10.10;99.90
24338;DHT22;12457;50.832;4.346;2024-03-23T10:23:36;10.10;99.90
24338;DHT22;12457;50.832;4.346;2024-03-23T10:26:18;10.30;99.90
24338;DHT22;12457;50.832;4.346;2024-03-23T10:29:09;10.60;99.90
24338;DHT22;12457;50.832;4.346;2024-03-23T10:31:37;11.00;99.90
24338;DHT22;12457;50.832;4.346;2024-03-23T10:34:16;11.20;99.90
24338;DHT22;12457;50.832;4.346;2024-03-23T10:36:42;11.30;99.90
24338;DHT22;12457;50.832;4.346;2024-03-23T10:39:12;11.20;99.90
24338;DHT22;12457;50.832;4.346;2024-03-23T10:41:39;11.10;99.90
24338;DHT22;12457;50.832;4.346;2024-03-23T10:44:09;11.00;99.90
24338;DHT22;12457;50.832;4.346;2024-03-23T10:46:35;10.90;99.90
24338;DHT22;12457;50.832;4.346;2024-03-23T10:49:03;10.90;99.90
24338;DHT22;12457;50.832;4.346;2024-03-23T10:51:29;11.00;99.90
24338;DHT22;12457;50.832;4.346;2024-03-23T10:53:59;11.00;99.90
24338;DHT22;12457;50.832;4.346;2024-03-23T10:56:30;11.00;99.90
24338;DHT22;12457;50.832;4.346;2024-03-23T10:59:08;10.90;99.90
24338;DHT22;12457;50.832;4.346;2024-03-23T11:01:34;11.00;99.90
24338;DHT22;12457;50.832;4.346;2024-03-23T11:04:00;11.10;99.90
24338;DHT22;12457;50.832;4.346;2024-03-23T11:06:35;11.20;99.90
24338;DHT22;12457;50.832;4.346;2024-03-23T11:09:01;11.30;99.90
24338;DHT22;12457;50.832;4.346;2024-03-23T11:11:27;11.30;99.90
24338;DHT22;12457;50.832;4.346;2024-03-23T11:17:18;11.30;99.90
24338;DHT22;12457;50.832;4.346;2024-03-23T11:19:44;11.20;99.90
24338;DHT22;12457;50.832;4.346;2024-03-23T11:22:10;11.20;99.90
24338;DHT22;12457;50.832;4.346;2024-03-23T11:24:35;11.00;99.90
24338;DHT22;12457;50.832;4.346;2024-03-23T11:27:02;10.90;99.90
24338;DHT22;12457;50.832;4.346;2024-03-23T11:29:40;10.80;99.90
24338;DHT22;12457;50.832;4.346;2024-03-23T11:32:10;10.70;99.90
24338;DHT22;12457;50.832;4.346;2024-03-23T11:34:35;10.80;99.90
24338;DHT22;12457;50.832;4.346;2024-03-23T11:37:05;10.90;99.90
24338;DHT22;12457;50.832;4.346;2024-03-23T11:39:31;10.70;99.90
24338;DHT22;12457;50.832;4.346;2024-03-23T11:41:58;10.70;99.90
24338;DHT22;12457;50.832;4.346;2024-03-23T11:44:36;10.60;99.90
24338;DHT22;12457;50.832;4.346;2024-03-23T11:47:08;10.40;99.90
24338;DHT22;12457;50.832;4.346;2024-03-23T11:49:36;10.40;99.90
24338;DHT22;12457;50.832;4.346;2024-03-23T11:52:06;10.50;99.90
24338;DHT22;12457;50.832;4.346;2024-03-23T11:54:32;10.50;99.90
24338;DHT22;12457;50.832;4.346;2024-03-23T11:56:59;10.40;99.90
24338;DHT22;12457;50.832;4.346;2024-03-23T11:59:47;10.40;99.90
24338;DHT22;12457;50.832;4.346;2024-03-23T12:02:13;10.30;99.90
24338;DHT22;12457;50.832;4.346;2024-03-23T12:04:43;10.30;99.90
24338;DHT22;12457;50.832;4.346;2024-03-23T12:07:19;10.30;99.90
24338;DHT22;12457;50.832;4.346;2024-03-23T12:10:04;10.30;99.90
24338;DHT22;12457;50.832;4.346;2024-03-23T12:12:32;10.50;99.90
24338;DHT22;12457;50.832;4.346;2024-03-23T12:15:15;10.60;99.90
24338;DHT22;12457;50.832;4.346;2024-03-23T12:17:43;10.70;99.90
24338;DHT22;12457;50.832;4.346;2024-03-23T12:20:09;10.80;99.90
24338;DHT22;12457;50.832;4.346;2024-03-23T12:22:35;10.70;99.90
24338;DHT22;12457;50.832;4.346;2024-03-23T12:25:01;10.40;99.90
24338;DHT22;12457;50.832;4.346;2024-03-23T12:27:26;10.00;99.90
24338;DHT22;12457;50.832;4.346;2024-03-23T12:30:16;10.00;99.90
24338;DHT22;12457;50.832;4.346;2024-03-23T12:32:42;10.00;99.90
24338;DHT22;12457;50.832;4.346;2024-03-23T12:35:08;9.90;99.90
24338;DHT22;12457;50.832;4.346;2024-03-23T12:37:35;9.90;99.90
24338;DHT22;12457;50.832;4.346;2024-03-23T12:40:00;10.00;99.90
24338;DHT22;12457;50.832;4.346;2024-03-23T12:42:26;10.10;99.90
24338;DHT22;12457;50.832;4.346;2024-03-23T12:44:52;10.30;99.90
24338;DHT22;12457;50.832;4.346;2024-03-23T12:47:17;10.50;99.90
24338;DHT22;12457;50.832;4.346;2024-03-23T12:49:43;10.70;99.90
24338;DHT22;12457;50.832;4.346;2024-03-23T12:52:09;10.80;99.90
24338;DHT22;12457;50.832;4.346;2024-03-23T12:54:34;11.00;99.90
24338;DHT22;12457;50.832;4.346;2024-03-23T12:57:00;11.10;99.90
24338;DHT22;12457;50.832;4.346;2024-03-23T12:59:28;11.20;99.90
24338;DHT22;12457;50.832;4.346;2024-03-23T13:01:53;11.30;99.90
24338;DHT22;12457;50.832;4.346;2024-03-23T13:04:21;11.50;99.90
24338;DHT22;12457;50.832;4.346;2024-03-23T13:06:46;11.60;99.90
24338;DHT22;12457;50.832;4.346;2024-03-23T13:09:12;11.80;99.90
24338;DHT22;12457;50.832;4.346;2024-03-23T13:11:38;11.90;99.90
24338;DHT22;12457;50.832;4.346;2024-03-23T13:17:44;12.30;98.90
24338;DHT22;12457;50.832;4.346;2024-03-23T13:20:10;12.10;99.00
24338;DHT22;12457;50.832;4.346;2024-03-23T13:22:39;11.90;99.50
24338;DHT22;12457;50.832;4.346;2024-03-23T13:25:05;11.80;99.70
24338;DHT22;12457;50.832;4.346;2024-03-23T13:27:31;11.90;99.30
24338;DHT22;12457;50.832;4.346;2024-03-23T13:30:28;12.10;99.10
24338;DHT22;12457;50.832;4.346;2024-03-23T13:32:54;12.40;99.00
24338;DHT22;12457;50.832;4.346;2024-03-23T13:35:19;12.40;97.60
24338;DHT22;12457;50.832;4.346;2024-03-23T13:37:45;12.50;99.10
24338;DHT22;12457;50.832;4.346;2024-03-23T13:40:11;12.80;98.00
24338;DHT22;12457;50.832;4.346;2024-03-23T13:42:37;12.90;96.00
24338;DHT22;12457;50.832;4.346;2024-03-23T13:45:28;12.90;95.50
24338;DHT22;12457;50.832;4.346;2024-03-23T13:47:53;13.00;96.30
24338;DHT22;12457;50.832;4.346;2024-03-23T13:50:19;12.90;95.20
24338;DHT22;12457;50.832;4.346;2024-03-23T13:52:45;12.80;96.40
24338;DHT22;12457;50.832;4.346;2024-03-23T13:55:10;12.60;97.30
24338;DHT22;12457;50.832;4.346;2024-03-23T13:57:39;12.60;97.50
24338;DHT22;12457;50.832;4.346;2024-03-23T14:00:14;12.50;97.40
24338;DHT22;12457;50.832;4.346;2024-03-23T14:02:40;12.60;98.70
24338;DHT22;12457;50.832;4.346;2024-03-23T14:05:06;12.60;98.80
24338;DHT22;12457;50.832;4.346;2024-03-23T14:07:32;12.80;99.70
24338;DHT22;12457;50.832;4.346;2024-03-23T14:10:04;12.80;99.90
24338;DHT22;12457;50.832;4.346;2024-03-23T14:12:32;12.70;99.40
24338;DHT22;12457;50.832;4.346;2024-03-23T14:15:07;12.60;98.50
24338;DHT22;12457;50.832;4.346;2024-03-23T14:17:33;12.80;98.30
24338;DHT22;12457;50.832;4.346;2024-03-23T14:19:59;12.80;98.60
24338;DHT22;12457;50.832;4.346;2024-03-23T14:22:31;12.60;98.00
24338;DHT22;12457;50.832;4.346;2024-03-23T14:24:57;12.40;98.40
24338;DHT22;12457;50.832;4.346;2024-03-23T14:27:24;12.20;99.30
24338;DHT22;12457;50.832;4.346;2024-03-23T14:29:49;12.10;99.50
24338;DHT22;12457;50.832;4.346;2024-03-23T14:32:18;12.00;99.10
24338;DHT22;12457;50.832;4.346;2024-03-23T14:34:50;12.00;99.30
24338;DHT22;12457;50.832;4.346;2024-03-23T14:37:20;12.10;99.10
24338;DHT22;12457;50.832;4.346;2024-03-23T14:39:46;12.20;98.80
24338;DHT22;12457;50.832;4.346;2024-03-23T14:42:12;12.10;99.10
24338;DHT22;12457;50.832;4.346;2024-03-23T14:44:37;12.30;98.70
24338;DHT22;12457;50.832;4.346;2024-03-23T14:47:03;12.40;98.20
24338;DHT22;12457;50.832;4.346;2024-03-23T14:49:29;12.40;98.20
24338;DHT22;12457;50.832;4.346;2024-03-23T14:51:55;12.40;98.30
24338;DHT22;12457;50.832;4.346;2024-03-23T14:54:20;12.50;98.00
24338;DHT22;12457;50.832;4.346;2024-03-23T14:56:46;12.40;97.40
24338;DHT22;12457;50.832;4.346;2024-03-23T14:59:12;12.50;97.10
24338;DHT22;12457;50.832;4.346;2024-03-23T15:01:41;12.50;98.00
24338;DHT22;12457;50.832;4.346;2024-03-23T15:04:07;12.60;97.90
24338;DHT22;12457;50.832;4.346;2024-03-23T15:06:33;12.70;97.80
24338;DHT22;12457;50.832;4.346;2024-03-23T15:08:59;12.70;97.60
24338;DHT22;12457;50.832;4.346;2024-03-23T15:11:25;12.60;97.30
24338;DHT22;12457;50.832;4.346;2024-03-23T15:13:50;12.40;97.80
24338;DHT22;12457;50.832;4.346;2024-03-23T15:16:25;12.30;98.80
24338;DHT22;12457;50.832;4.346;2024-03-23T15:18:51;12.20;99.50
24338;DHT22;12457;50.832;4.346;2024-03-23T15:21:17;12.30;99.90
24338;DHT22;12457;50.832;4.346;2024-03-23T15:23:46;12.40;99.90
24338;DHT22;12457;50.832;4.346;2024-03-23T15:26:12;12.40;99.00
24338;DHT22;12457;50.832;4.346;2024-03-23T15:28:38;12.40;98.40
24338;DHT22;12457;50.832;4.346;2024-03-23T15:31:07;12.40;97.30
24338;DHT22;12457;50.832;4.346;2024-03-23T15:33:34;12.30;97.80
24338;DHT22;12457;50.832;4.346;2024-03-23T15:36:01;12.40;98.60
24338;DHT22;12457;50.832;4.346;2024-03-23T15:38:27;12.40;98.30
24338;DHT22;12457;50.832;4.346;2024-03-23T15:40:54;12.50;98.10
24338;DHT22;12457;50.832;4.346;2024-03-23T15:43:20;12.40;97.80
24338;DHT22;12457;50.832;4.346;2024-03-23T15:46:03;12.40;98.50
24338;DHT22;12457;50.832;4.346;2024-03-23T15:48:29;12.30;99.00
24338;DHT22;12457;50.832;4.346;2024-03-23T15:51:04;12.30;98.90
24338;DHT22;12457;50.832;4.346;2024-03-23T15:53:30;12.20;99.10
24338;DHT22;12457;50.832;4.346;2024-03-23T15:56:01;12.20;98.70
24338;DHT22;12457;50.832;4.346;2024-03-23T15:58:27;12.10;97.80
24338;DHT22;12457;50.832;4.346;2024-03-23T16:04:15;11.90;96.60
24338;DHT22;12457;50.832;4.346;2024-03-23T16:06:41;11.90;96.50
24338;DHT22;12457;50.832;4.346;2024-03-23T16:09:07;11.90;96.30
24338;DHT22;12457;50.832;4.346;2024-03-23T16:11:35;12.00;96.00
24338;DHT22;12457;50.832;4.346;2024-03-23T16:14:01;12.10;96.20
24338;DHT22;12457;50.832;4.346;2024-03-23T16:16:28;12.10;95.10
24338;DHT22;12457;50.832;4.346;2024-03-23T16:18:54;12.00;95.20
24338;DHT22;12457;50.832;4.346;2024-03-23T16:21:20;12.10;93.60
24338;DHT22;12457;50.832;4.346;2024-03-23T16:23:45;12.00;93.50
24338;DHT22;12457;50.832;4.346;2024-03-23T16:26:12;11.90;94.70
24338;DHT22;12457;50.832;4.346;2024-03-23T16:28:38;11.80;94.30
24338;DHT22;12457;50.832;4.346;2024-03-23T16:31:13;11.80;94.00
24338;DHT22;12457;50.832;4.346;2024-03-23T16:33:39;11.70;94.50
24338;DHT22;12457;50.832;4.346;2024-03-23T16:36:06;11.70;94.50
24338;DHT22;12457;50.832;4.346;2024-03-23T16:38:36;11.80;95.10
24338;DHT22;12457;50.832;4.346;2024-03-23T16:41:07;11.80;94.80
24338;DHT22;12457;50.832;4.346;2024-03-23T16:43:34;11.70;94.40
24338;DHT22;12457;50.832;4.346;2024-03-23T16:48:29;11.70;94.90
24338;DHT22;12457;50.832;4.346;2024-03-23T16:51:02;11.70;94.40